SHT21F EGJB-EGLL
Flight info
| Callsign | SHT21F |
|---|---|
| Flight time | N/A |
| Altitude | 19000 |
| Route | ORIST L982 ROXOG |
| Aircraft | A320/M-SDE3FGHIRWY/LB1 |
Departure
| Time | 2026-04-26 12:54 |
|---|---|
| Airport | Guernsey Airport (EGJB) |
Arrival
| Time | N/A |
|---|---|
| Airport | London Heathrow Airport (EGLL) |
| Time | Latitude | Longitude | Altitude | Speed | Heading |
|---|---|---|---|---|---|
| 2026-04-26 12:24 | 49.43259 | -2.59687 | 348 ft | 0 kts | 178° |
| 2026-04-26 12:46 | 49.43265 | -2.59688 | 347 ft | 3 kts | 178° |
| 2026-04-26 12:46 | 49.43283 | -2.59689 | 349 ft | 3 kts | 178° |
| 2026-04-26 12:47 | 49.43301 | -2.59690 | 351 ft | 3 kts | 178° |
| 2026-04-26 12:47 | 49.43319 | -2.59690 | 350 ft | 2 kts | 178° |
| 2026-04-26 12:47 | 49.43336 | -2.59684 | 347 ft | 3 kts | 217° |
| 2026-04-26 12:47 | 49.43347 | -2.59663 | 358 ft | 3 kts | 256° |
| 2026-04-26 12:48 | 49.43349 | -2.59655 | 354 ft | 0 kts | 267° |
| 2026-04-26 12:48 | 49.43348 | -2.59678 | 353 ft | 12 kts | 268° |
| 2026-04-26 12:48 | 49.43343 | -2.59976 | 347 ft | 39 kts | 268° |
| 2026-04-26 12:49 | 49.43328 | -2.60411 | 334 ft | 42 kts | 268° |
| 2026-04-26 12:49 | 49.43355 | -2.60872 | 324 ft | 45 kts | 279° |
| 2026-04-26 12:49 | 49.43357 | -2.61171 | 320 ft | 6 kts | 266° |
| 2026-04-26 12:49 | 49.43359 | -2.61224 | 319 ft | 2 kts | 277° |
| 2026-04-26 12:50 | 49.43361 | -2.61243 | 318 ft | 0 kts | 284° |
| 2026-04-26 12:51 | 49.43362 | -2.61249 | 318 ft | 5 kts | 286° |
| 2026-04-26 12:52 | 49.43427 | -2.61353 | 315 ft | 18 kts | 345° |
| 2026-04-26 12:52 | 49.43460 | -2.61351 | 316 ft | 3 kts | 19° |
| 2026-04-26 12:52 | 49.43462 | -2.61350 | 316 ft | 0 kts | 30° |
| 2026-04-26 12:52 | 49.43468 | -2.61343 | 316 ft | 1 kts | 43° |
| 2026-04-26 12:53 | 49.43473 | -2.61334 | 315 ft | 2 kts | 54° |
| 2026-04-26 12:53 | 49.43478 | -2.61323 | 316 ft | 0 kts | 66° |
| 2026-04-26 12:53 | 49.43489 | -2.61240 | 318 ft | 28 kts | 86° |
| 2026-04-26 12:53 | 49.43493 | -2.60528 | 334 ft | 107 kts | 89° |
| 2026-04-26 12:54 | 49.43543 | -2.59035 | 648 ft | 153 kts | 88° |
| 2026-04-26 12:54 | 49.43593 | -2.57305 | 1516 ft | 171 kts | 89° |
| 2026-04-26 12:54 | 49.43639 | -2.55391 | 2430 ft | 189 kts | 89° |
| 2026-04-26 12:54 | 49.43688 | -2.53209 | 3000 ft | 226 kts | 89° |
| 2026-04-26 12:55 | 49.43741 | -2.50611 | 3468 ft | 261 kts | 89° |
| 2026-04-26 12:55 | 49.43800 | -2.47625 | 3906 ft | 297 kts | 88° |
| 2026-04-26 12:55 | 49.43875 | -2.44283 | 4376 ft | 329 kts | 88° |
| 2026-04-26 12:55 | 49.44404 | -2.40737 | 5013 ft | 354 kts | 66° |
| 2026-04-26 12:56 | 49.45821 | -2.37588 | 5978 ft | 365 kts | 44° |
| 2026-04-26 12:56 | 49.47917 | -2.35372 | 7119 ft | 371 kts | 24° |
| 2026-04-26 12:56 | 49.50366 | -2.34150 | 8145 ft | 379 kts | 15° |
| 2026-04-26 12:56 | 49.52937 | -2.33067 | 9195 ft | 387 kts | 15° |
| 2026-04-26 12:57 | 49.55543 | -2.31879 | 10226 ft | 395 kts | 20° |
| 2026-04-26 12:57 | 49.58045 | -2.30025 | 11137 ft | 403 kts | 31° |
| 2026-04-26 12:57 | 49.60431 | -2.27690 | 12084 ft | 410 kts | 33° |
| 2026-04-26 12:58 | 49.65280 | -2.22775 | 13777 ft | 427 kts | 33° |
| 2026-04-26 12:58 | 49.67809 | -2.20207 | 14203 ft | 444 kts | 33° |
| 2026-04-26 12:58 | 49.70351 | -2.17622 | 15588 ft | 424 kts | 32° |
| 2026-04-26 12:58 | 49.72748 | -2.15179 | 17316 ft | 405 kts | 32° |
| 2026-04-26 12:59 | 49.75057 | -2.12826 | 18446 ft | 402 kts | 31° |
| 2026-04-26 12:59 | 49.77408 | -2.10431 | 19003 ft | 409 kts | 31° |
| 2026-04-26 12:59 | 49.79816 | -2.07946 | 19220 ft | 425 kts | 33° |
| 2026-04-26 12:59 | 49.82286 | -2.05259 | 19269 ft | 444 kts | 33° |
| 2026-04-26 13:00 | 49.84858 | -2.02433 | 19270 ft | 461 kts | 33° |
| 2026-04-26 13:00 | 49.87491 | -1.99534 | 19264 ft | 467 kts | 33° |
| 2026-04-26 13:00 | 49.90142 | -1.96612 | 19267 ft | 467 kts | 34° |
| 2026-04-26 13:00 | 49.92798 | -1.93690 | 19264 ft | 467 kts | 33° |
| 2026-04-26 13:01 | 49.95438 | -1.90890 | 19268 ft | 466 kts | 31° |
| 2026-04-26 13:01 | 49.98166 | -1.88171 | 19269 ft | 466 kts | 31° |
| 2026-04-26 13:01 | 50.00901 | -1.85466 | 19270 ft | 466 kts | 31° |
| 2026-04-26 13:01 | 50.03638 | -1.82759 | 19270 ft | 466 kts | 31° |
| 2026-04-26 13:02 | 50.06370 | -1.80057 | 19268 ft | 466 kts | 31° |
| 2026-04-26 13:02 | 50.09107 | -1.77346 | 19275 ft | 466 kts | 31° |
| 2026-04-26 13:02 | 50.11847 | -1.74631 | 19274 ft | 466 kts | 31° |
| 2026-04-26 13:02 | 50.14581 | -1.71919 | 19276 ft | 466 kts | 31° |
| 2026-04-26 13:03 | 50.17280 | -1.69239 | 19277 ft | 466 kts | 31° |
| 2026-04-26 13:03 | 50.20007 | -1.66530 | 19279 ft | 466 kts | 31° |
| 2026-04-26 13:03 | 50.22745 | -1.63808 | 19280 ft | 466 kts | 31° |
| 2026-04-26 13:03 | 50.25477 | -1.61089 | 19279 ft | 466 kts | 31° |
| 2026-04-26 13:04 | 50.28212 | -1.58365 | 19282 ft | 466 kts | 31° |
| 2026-04-26 13:04 | 50.30947 | -1.55639 | 19279 ft | 466 kts | 31° |
| 2026-04-26 13:04 | 50.33684 | -1.52909 | 19282 ft | 466 kts | 31° |
| 2026-04-26 13:04 | 50.36418 | -1.50180 | 19289 ft | 466 kts | 31° |
| 2026-04-26 13:05 | 50.38222 | -1.48378 | 19291 ft | 466 kts | 31° |
| 2026-04-26 13:05 | 50.40877 | -1.45724 | 19292 ft | 466 kts | 31° |
| 2026-04-26 13:05 | 50.43608 | -1.42991 | 19298 ft | 466 kts | 31° |
| 2026-04-26 13:05 | 50.46300 | -1.40296 | 19292 ft | 465 kts | 31° |
| 2026-04-26 13:06 | 50.49031 | -1.37559 | 19296 ft | 465 kts | 31° |
| 2026-04-26 13:06 | 50.51758 | -1.34825 | 19295 ft | 465 kts | 31° |
| 2026-04-26 13:06 | 50.54488 | -1.32085 | 19297 ft | 465 kts | 31° |
| 2026-04-26 13:06 | 50.57216 | -1.29344 | 19300 ft | 465 kts | 31° |
| 2026-04-26 13:07 | 50.59940 | -1.26604 | 19302 ft | 465 kts | 31° |
| 2026-04-26 13:07 | 50.62668 | -1.23858 | 19299 ft | 465 kts | 31° |
| 2026-04-26 13:07 | 50.65398 | -1.21111 | 19300 ft | 465 kts | 31° |
| 2026-04-26 13:07 | 50.68086 | -1.18401 | 19301 ft | 465 kts | 32° |
| 2026-04-26 13:08 | 50.70812 | -1.15651 | 19297 ft | 465 kts | 32° |
| 2026-04-26 13:08 | 50.73538 | -1.12898 | 19297 ft | 465 kts | 32° |
| 2026-04-26 13:08 | 50.76264 | -1.10144 | 19297 ft | 465 kts | 32° |
| 2026-04-26 13:08 | 50.78991 | -1.07385 | 19305 ft | 465 kts | 32° |
| 2026-04-26 13:09 | 50.81718 | -1.04625 | 19296 ft | 466 kts | 32° |
| 2026-04-26 13:09 | 50.84442 | -1.01865 | 19299 ft | 466 kts | 32° |
| 2026-04-26 13:09 | 50.87171 | -0.99098 | 19300 ft | 466 kts | 32° |
| 2026-04-26 13:09 | 50.89898 | -0.96331 | 19302 ft | 465 kts | 32° |
| 2026-04-26 13:10 | 50.92621 | -0.93565 | 19296 ft | 465 kts | 32° |
| 2026-04-26 13:10 | 50.95347 | -0.90792 | 19298 ft | 465 kts | 32° |
| 2026-04-26 13:10 | 50.98033 | -0.88058 | 19305 ft | 465 kts | 32° |
| 2026-04-26 13:10 | 51.00756 | -0.85285 | 19293 ft | 465 kts | 32° |
| 2026-04-26 13:11 | 51.03475 | -0.82515 | 19299 ft | 465 kts | 32° |
| 2026-04-26 13:11 | 51.06198 | -0.79737 | 19296 ft | 465 kts | 32° |
| 2026-04-26 13:11 | 51.08915 | -0.76962 | 19298 ft | 465 kts | 32° |
| 2026-04-26 13:11 | 51.11636 | -0.74180 | 19296 ft | 464 kts | 32° |